sensor_id;sensor_type;location;lat;lon;timestamp;pressure;altitude;pressure_sealevel;temperature;humidity
13407;BME280;6774;48.208;10.766;2022-11-20T00:01:08;95008.94;;;6.67;83.13
13407;BME280;6774;48.208;10.766;2022-11-20T00:03:37;95006.34;;;6.67;83.47
13407;BME280;6774;48.208;10.766;2022-11-20T00:06:06;95006.63;;;6.26;85.37
13407;BME280;6774;48.208;10.766;2022-11-20T00:08:34;95007.91;;;6.30;85.14
13407;BME280;6774;48.208;10.766;2022-11-20T00:11:05;95013.63;;;6.56;84.16
13407;BME280;6774;48.208;10.766;2022-11-20T00:13:41;95006.75;;;6.55;84.26
13407;BME280;6774;48.208;10.766;2022-11-20T00:16:11;95006.03;;;6.39;84.29
13407;BME280;6774;48.208;10.766;2022-11-20T00:18:39;95009.50;;;6.62;84.03
13407;BME280;6774;48.208;10.766;2022-11-20T00:21:10;95019.16;;;6.62;84.00
13407;BME280;6774;48.208;10.766;2022-11-20T00:23:38;95017.47;;;6.69;83.97
13407;BME280;6774;48.208;10.766;2022-11-20T00:26:10;95024.41;;;6.62;84.40
13407;BME280;6774;48.208;10.766;2022-11-20T00:28:38;95028.31;;;6.66;84.02
13407;BME280;6774;48.208;10.766;2022-11-20T00:31:08;95023.00;;;6.74;83.57
13407;BME280;6774;48.208;10.766;2022-11-20T00:33:36;95028.06;;;6.75;83.69
13407;BME280;6774;48.208;10.766;2022-11-20T00:36:06;95029.53;;;6.78;83.68
13407;BME280;6774;48.208;10.766;2022-11-20T00:38:35;95024.34;;;6.70;83.36
13407;BME280;6774;48.208;10.766;2022-11-20T00:41:04;95029.75;;;6.91;83.20
13407;BME280;6774;48.208;10.766;2022-11-20T00:43:34;95042.28;;;6.81;83.46
13407;BME280;6774;48.208;10.766;2022-11-20T00:46:04;95039.66;;;6.81;83.88
13407;BME280;6774;48.208;10.766;2022-11-20T00:48:32;95043.03;;;6.67;84.62
13407;BME280;6774;48.208;10.766;2022-11-20T00:51:00;95044.59;;;6.76;83.92
13407;BME280;6774;48.208;10.766;2022-11-20T00:53:28;95047.75;;;6.48;84.92
13407;BME280;6774;48.208;10.766;2022-11-20T00:55:58;95049.84;;;6.76;84.00
13407;BME280;6774;48.208;10.766;2022-11-20T00:58:29;95054.41;;;6.82;83.72
13407;BME280;6774;48.208;10.766;2022-11-20T01:01:02;95046.84;;;6.87;83.38
13407;BME280;6774;48.208;10.766;2022-11-20T01:03:31;95050.09;;;6.89;82.26
13407;BME280;6774;48.208;10.766;2022-11-20T01:06:00;95057.44;;;6.71;82.67
13407;BME280;6774;48.208;10.766;2022-11-20T01:08:30;95051.63;;;6.61;82.58
13407;BME280;6774;48.208;10.766;2022-11-20T01:11:00;95049.09;;;6.67;82.26
13407;BME280;6774;48.208;10.766;2022-11-20T01:13:29;95043.13;;;6.59;82.48
13407;BME280;6774;48.208;10.766;2022-11-20T01:16:09;95044.69;;;6.68;82.16
13407;BME280;6774;48.208;10.766;2022-11-20T01:18:39;95038.69;;;6.59;82.80
13407;BME280;6774;48.208;10.766;2022-11-20T01:21:10;95046.59;;;6.51;83.20
13407;BME280;6774;48.208;10.766;2022-11-20T01:23:39;95058.00;;;6.35;83.60
13407;BME280;6774;48.208;10.766;2022-11-20T01:26:10;95051.56;;;6.15;83.93
13407;BME280;6774;48.208;10.766;2022-11-20T01:28:38;95055.75;;;6.24;84.22
13407;BME280;6774;48.208;10.766;2022-11-20T01:31:15;95050.03;;;6.20;83.81
13407;BME280;6774;48.208;10.766;2022-11-20T01:33:45;95056.78;;;6.15;84.38
13407;BME280;6774;48.208;10.766;2022-11-20T01:36:15;95054.59;;;5.87;84.62
13407;BME280;6774;48.208;10.766;2022-11-20T01:38:43;95061.78;;;5.93;84.75
13407;BME280;6774;48.208;10.766;2022-11-20T01:41:12;95061.03;;;5.77;85.00
13407;BME280;6774;48.208;10.766;2022-11-20T01:44:02;95070.50;;;5.78;84.63
13407;BME280;6774;48.208;10.766;2022-11-20T01:46:30;95066.06;;;5.86;84.67
13407;BME280;6774;48.208;10.766;2022-11-20T01:49:01;95066.13;;;5.62;84.93
13407;BME280;6774;48.208;10.766;2022-11-20T01:51:34;95061.31;;;5.82;84.22
13407;BME280;6774;48.208;10.766;2022-11-20T01:54:06;95073.91;;;5.86;84.72
13407;BME280;6774;48.208;10.766;2022-11-20T01:56:39;95061.13;;;5.91;84.31
13407;BME280;6774;48.208;10.766;2022-11-20T01:59:10;95072.94;;;5.79;84.33
13407;BME280;6774;48.208;10.766;2022-11-20T02:01:39;95071.63;;;5.83;84.19
13407;BME280;6774;48.208;10.766;2022-11-20T02:04:08;95070.97;;;5.81;84.68
13407;BME280;6774;48.208;10.766;2022-11-20T02:06:41;95072.28;;;5.85;84.02
13407;BME280;6774;48.208;10.766;2022-11-20T02:09:10;95072.59;;;5.82;83.84
13407;BME280;6774;48.208;10.766;2022-11-20T02:11:38;95060.66;;;5.88;83.83
13407;BME280;6774;48.208;10.766;2022-11-20T02:14:06;95072.44;;;5.76;83.79
13407;BME280;6774;48.208;10.766;2022-11-20T02:16:35;95065.06;;;5.87;83.28
13407;BME280;6774;48.208;10.766;2022-11-20T02:19:07;95061.47;;;5.88;83.42
13407;BME280;6774;48.208;10.766;2022-11-20T02:21:41;95059.22;;;5.77;83.69
13407;BME280;6774;48.208;10.766;2022-11-20T02:24:14;95065.72;;;5.81;84.10
13407;BME280;6774;48.208;10.766;2022-11-20T02:26:47;95069.63;;;5.93;83.57
13407;BME280;6774;48.208;10.766;2022-11-20T02:29:19;95069.63;;;5.93;83.53
13407;BME280;6774;48.208;10.766;2022-11-20T02:31:50;95061.47;;;5.88;83.66
13407;BME280;6774;48.208;10.766;2022-11-20T02:34:18;95070.31;;;5.87;83.98
13407;BME280;6774;48.208;10.766;2022-11-20T02:36:47;95070.94;;;5.89;84.33
13407;BME280;6774;48.208;10.766;2022-11-20T02:39:19;95067.00;;;6.02;84.11
13407;BME280;6774;48.208;10.766;2022-11-20T02:41:48;95063.72;;;5.99;84.31
13407;BME280;6774;48.208;10.766;2022-11-20T02:44:16;95061.75;;;6.02;84.20
13407;BME280;6774;48.208;10.766;2022-11-20T02:46:44;95063.84;;;6.14;84.05
13407;BME280;6774;48.208;10.766;2022-11-20T02:49:12;95067.94;;;6.09;83.86
13407;BME280;6774;48.208;10.766;2022-11-20T02:51:40;95065.97;;;6.11;84.19
13407;BME280;6774;48.208;10.766;2022-11-20T02:54:08;95066.31;;;6.08;84.26
13407;BME280;6774;48.208;10.766;2022-11-20T02:56:38;95063.25;;;5.96;84.24
13407;BME280;6774;48.208;10.766;2022-11-20T02:59:07;95068.63;;;6.03;84.84
13407;BME280;6774;48.208;10.766;2022-11-20T03:01:35;95064.06;;;6.05;84.77
13407;BME280;6774;48.208;10.766;2022-11-20T03:04:03;95058.06;;;6.19;84.09
13407;BME280;6774;48.208;10.766;2022-11-20T03:06:31;95067.47;;;6.05;84.18
13407;BME280;6774;48.208;10.766;2022-11-20T03:08:59;95058.56;;;6.22;83.59
13407;BME280;6774;48.208;10.766;2022-11-20T03:11:28;95067.09;;;6.16;83.70
13407;BME280;6774;48.208;10.766;2022-11-20T03:13:57;95058.06;;;6.19;83.64
13407;BME280;6774;48.208;10.766;2022-11-20T03:16:25;95053.16;;;6.24;83.74
13407;BME280;6774;48.208;10.766;2022-11-20T03:18:53;95054.47;;;6.20;83.66
13407;BME280;6774;48.208;10.766;2022-11-20T03:21:21;95052.63;;;6.28;83.85
13407;BME280;6774;48.208;10.766;2022-11-20T03:23:49;95046.63;;;6.12;83.99
13407;BME280;6774;48.208;10.766;2022-11-20T03:26:20;95054.47;;;6.20;83.76
13407;BME280;6774;48.208;10.766;2022-11-20T03:28:49;95052.50;;;6.22;83.65
13407;BME280;6774;48.208;10.766;2022-11-20T03:31:20;95057.03;;;6.28;83.34
13407;BME280;6774;48.208;10.766;2022-11-20T03:33:48;95053.69;;;6.42;82.96
13407;BME280;6774;48.208;10.766;2022-11-20T03:36:18;95058.94;;;6.42;82.78
13407;BME280;6774;48.208;10.766;2022-11-20T03:38:46;95058.59;;;6.45;82.63
13407;BME280;6774;48.208;10.766;2022-11-20T03:41:17;95065.84;;;6.35;82.51
13407;BME280;6774;48.208;10.766;2022-11-20T03:43:47;95066.41;;;6.53;82.42
13407;BME280;6774;48.208;10.766;2022-11-20T03:46:20;95061.47;;;6.59;81.92
13407;BME280;6774;48.208;10.766;2022-11-20T03:48:50;95057.13;;;6.66;81.50
13407;BME280;6774;48.208;10.766;2022-11-20T03:51:22;95055.69;;;6.63;81.29
13407;BME280;6774;48.208;10.766;2022-11-20T03:53:53;95058.50;;;6.62;81.86
13407;BME280;6774;48.208;10.766;2022-11-20T03:56:24;95059.44;;;6.69;82.03
13407;BME280;6774;48.208;10.766;2022-11-20T03:58:53;95058.19;;;6.56;82.38
13407;BME280;6774;48.208;10.766;2022-11-20T04:01:24;95058.50;;;6.62;81.44
13407;BME280;6774;48.208;10.766;2022-11-20T04:03:54;95059.88;;;6.72;81.21
13407;BME280;6774;48.208;10.766;2022-11-20T04:06:24;95058.50;;;6.62;81.40
13407;BME280;6774;48.208;10.766;2022-11-20T04:08:54;95067.56;;;6.74;81.18
13407;BME280;6774;48.208;10.766;2022-11-20T04:11:24;95060.88;;;6.71;81.42
13407;BME280;6774;48.208;10.766;2022-11-20T04:13:53;95053.47;;;6.75;81.41
13407;BME280;6774;48.208;10.766;2022-11-20T04:16:24;95056.91;;;6.52;82.01
13407;BME280;6774;48.208;10.766;2022-11-20T04:18:54;95066.63;;;6.44;82.07
13407;BME280;6774;48.208;10.766;2022-11-20T04:21:23;95065.50;;;6.69;81.15
13407;BME280;6774;48.208;10.766;2022-11-20T04:23:52;95053.00;;;6.71;81.66
13407;BME280;6774;48.208;10.766;2022-11-20T04:26:21;95061.06;;;6.70;81.35
13407;BME280;6774;48.208;10.766;2022-11-20T04:28:50;95050.91;;;6.67;81.03
13407;BME280;6774;48.208;10.766;2022-11-20T04:31:19;95052.47;;;6.76;80.80
13407;BME280;6774;48.208;10.766;2022-11-20T04:33:49;95048.47;;;6.88;79.71
13407;BME280;6774;48.208;10.766;2022-11-20T04:36:19;95049.22;;;6.74;80.65
13407;BME280;6774;48.208;10.766;2022-11-20T04:38:50;95050.56;;;6.70;80.80
13407;BME280;6774;48.208;10.766;2022-11-20T04:41:24;95044.75;;;6.60;81.33
13407;BME280;6774;48.208;10.766;2022-11-20T04:43:54;95051.63;;;6.61;81.16
13407;BME280;6774;48.208;10.766;2022-11-20T04:46:27;95052.59;;;6.60;81.56
13407;BME280;6774;48.208;10.766;2022-11-20T04:48:56;95047.06;;;6.54;81.36
13407;BME280;6774;48.208;10.766;2022-11-20T04:51:24;95045.19;;;6.40;81.85
13407;BME280;6774;48.208;10.766;2022-11-20T04:53:52;95050.53;;;6.47;80.98
13407;BME280;6774;48.208;10.766;2022-11-20T04:56:19;95054.25;;;6.30;81.26
13407;BME280;6774;48.208;10.766;2022-11-20T04:58:47;95057.75;;;6.22;81.08
13407;BME280;6774;48.208;10.766;2022-11-20T05:01:17;95060.19;;;6.23;80.55
13407;BME280;6774;48.208;10.766;2022-11-20T05:03:46;95055.84;;;6.08;80.97
13407;BME280;6774;48.208;10.766;2022-11-20T05:06:18;95063.25;;;5.96;80.76
13407;BME280;6774;48.208;10.766;2022-11-20T05:08:46;95062.78;;;5.92;81.63
13407;BME280;6774;48.208;10.766;2022-11-20T05:11:16;95058.84;;;5.88;81.81
13407;BME280;6774;48.208;10.766;2022-11-20T05:13:44;95058.34;;;5.93;82.20
13407;BME280;6774;48.208;10.766;2022-11-20T05:16:14;95059.50;;;5.90;82.66
13407;BME280;6774;48.208;10.766;2022-11-20T05:18:42;95058.03;;;5.88;83.42
13407;BME280;6774;48.208;10.766;2022-11-20T05:21:11;95062.44;;;5.95;83.24
13407;BME280;6774;48.208;10.766;2022-11-20T05:23:41;95067.00;;;6.02;83.12
13407;BME280;6774;48.208;10.766;2022-11-20T05:26:13;95059.38;;;6.23;82.27
13407;BME280;6774;48.208;10.766;2022-11-20T05:28:41;95057.84;;;6.28;81.60
13407;BME280;6774;48.208;10.766;2022-11-20T05:31:11;95054.72;;;6.33;80.87
13407;BME280;6774;48.208;10.766;2022-11-20T05:33:40;95047.81;;;6.40;80.78
13407;BME280;6774;48.208;10.766;2022-11-20T05:36:09;95054.09;;;6.31;80.25
13407;BME280;6774;48.208;10.766;2022-11-20T05:38:38;95055.41;;;6.27;80.82
13407;BME280;6774;48.208;10.766;2022-11-20T05:41:09;95056.09;;;6.21;80.37
13407;BME280;6774;48.208;10.766;2022-11-20T05:43:39;95055.41;;;6.27;80.54
13407;BME280;6774;48.208;10.766;2022-11-20T05:46:09;95055.06;;;6.30;80.30
13407;BME280;6774;48.208;10.766;2022-11-20T05:48:38;95044.56;;;6.30;80.12
13407;BME280;6774;48.208;10.766;2022-11-20T05:51:11;95054.94;;;6.23;80.59
13407;BME280;6774;48.208;10.766;2022-11-20T05:53:40;95054.09;;;6.31;80.81
13407;BME280;6774;48.208;10.766;2022-11-20T05:56:16;95046.56;;;6.28;81.08
13407;BME280;6774;48.208;10.766;2022-11-20T05:58:44;95044.94;;;6.27;81.48
13407;BME280;6774;48.208;10.766;2022-11-20T06:01:14;95054.25;;;6.30;81.37
13407;BME280;6774;48.208;10.766;2022-11-20T06:03:42;95046.56;;;6.28;81.49
13407;BME280;6774;48.208;10.766;2022-11-20T06:06:13;95055.25;;;6.28;81.43
13407;BME280;6774;48.208;10.766;2022-11-20T06:08:42;95060.84;;;6.25;82.06
13407;BME280;6774;48.208;10.766;2022-11-20T06:11:11;95061.03;;;6.16;82.06
13407;BME280;6774;48.208;10.766;2022-11-20T06:13:42;95062.00;;;6.23;82.00
13407;BME280;6774;48.208;10.766;2022-11-20T06:16:11;95063.22;;;6.35;81.47
13407;BME280;6774;48.208;10.766;2022-11-20T06:18:39;95065.69;;;6.37;81.25
13407;BME280;6774;48.208;10.766;2022-11-20T06:21:09;95070.09;;;6.36;81.30
13407;BME280;6774;48.208;10.766;2022-11-20T06:23:37;95066.91;;;6.49;80.96
13407;BME280;6774;48.208;10.766;2022-11-20T06:26:06;95074.66;;;6.42;81.33
13407;BME280;6774;48.208;10.766;2022-11-20T06:28:35;95072.47;;;6.54;80.90
13407;BME280;6774;48.208;10.766;2022-11-20T06:31:05;95076.44;;;6.50;80.05
13407;BME280;6774;48.208;10.766;2022-11-20T06:33:33;95075.63;;;6.49;79.77
13407;BME280;6774;48.208;10.766;2022-11-20T06:36:02;95078.81;;;6.60;79.88
13407;BME280;6774;48.208;10.766;2022-11-20T06:38:36;95075.38;;;6.59;80.15
13407;BME280;6774;48.208;10.766;2022-11-20T06:41:05;95074.22;;;6.62;80.19
13407;BME280;6774;48.208;10.766;2022-11-20T06:43:33;95083.41;;;6.57;80.60
13407;BME280;6774;48.208;10.766;2022-11-20T06:46:01;95094.25;;;6.54;80.17
13407;BME280;6774;48.208;10.766;2022-11-20T06:48:30;95088.41;;;6.44;80.53
13407;BME280;6774;48.208;10.766;2022-11-20T06:50:58;95092.84;;;6.44;80.94
13407;BME280;6774;48.208;10.766;2022-11-20T06:53:26;95096.19;;;6.61;79.87
13407;BME280;6774;48.208;10.766;2022-11-20T06:55:55;95097.75;;;6.70;79.62
13407;BME280;6774;48.208;10.766;2022-11-20T06:58:26;95094.03;;;6.64;79.43
13407;BME280;6774;48.208;10.766;2022-11-20T07:00:57;95100.22;;;6.71;78.88
13407;BME280;6774;48.208;10.766;2022-11-20T07:03:26;95099.13;;;6.57;79.51
13407;BME280;6774;48.208;10.766;2022-11-20T07:05:56;95106.34;;;6.55;79.50
13407;BME280;6774;48.208;10.766;2022-11-20T07:08:24;95104.63;;;6.71;79.13
13407;BME280;6774;48.208;10.766;2022-11-20T07:10:52;95103.41;;;6.81;79.28
13407;BME280;6774;48.208;10.766;2022-11-20T07:13:24;95101.44;;;6.83;79.74
13407;BME280;6774;48.208;10.766;2022-11-20T07:15:52;95104.78;;;6.77;79.87
13407;BME280;6774;48.208;10.766;2022-11-20T07:18:20;95107.91;;;6.73;80.00
13407;BME280;6774;48.208;10.766;2022-11-20T07:20:48;95104.22;;;6.82;79.72
13407;BME280;6774;48.208;10.766;2022-11-20T07:23:17;95107.53;;;6.76;79.95
13407;BME280;6774;48.208;10.766;2022-11-20T07:25:45;95108.34;;;6.76;79.41
13407;BME280;6774;48.208;10.766;2022-11-20T07:28:13;95114.53;;;6.61;80.38
13407;BME280;6774;48.208;10.766;2022-11-20T07:30:41;95120.09;;;6.57;80.86
13407;BME280;6774;48.208;10.766;2022-11-20T07:33:09;95130.25;;;6.61;80.88
13407;BME280;6774;48.208;10.766;2022-11-20T07:35:37;95125.63;;;6.71;80.45
13407;BME280;6774;48.208;10.766;2022-11-20T07:38:05;95126.16;;;6.89;80.02
13407;BME280;6774;48.208;10.766;2022-11-20T07:40:35;95122.00;;;7.18;79.44
13407;BME280;6774;48.208;10.766;2022-11-20T07:43:03;95122.47;;;7.21;78.84
13407;BME280;6774;48.208;10.766;2022-11-20T07:45:31;95127.72;;;7.21;79.00
13407;BME280;6774;48.208;10.766;2022-11-20T07:47:59;95130.19;;;7.23;79.18
13407;BME280;6774;48.208;10.766;2022-11-20T07:50:27;95114.75;;;7.43;78.86
13407;BME280;6774;48.208;10.766;2022-11-20T07:53:01;95126.78;;;7.37;78.18
13407;BME280;6774;48.208;10.766;2022-11-20T07:55:30;95119.41;;;7.55;77.80
13407;BME280;6774;48.208;10.766;2022-11-20T07:58:00;95120.50;;;7.61;77.40
13407;BME280;6774;48.208;10.766;2022-11-20T08:00:28;95113.44;;;7.61;78.19
13407;BME280;6774;48.208;10.766;2022-11-20T08:02:55;95100.84;;;7.57;78.01
13407;BME280;6774;48.208;10.766;2022-11-20T08:05:23;95107.34;;;7.46;78.75
13407;BME280;6774;48.208;10.766;2022-11-20T08:07:51;95107.63;;;7.51;79.54
13407;BME280;6774;48.208;10.766;2022-11-20T08:10:19;95106.53;;;7.46;78.35
13407;BME280;6774;48.208;10.766;2022-11-20T08:12:48;95111.03;;;7.37;79.65
13407;BME280;6774;48.208;10.766;2022-11-20T08:15:37;95116.84;;;7.47;79.41
13407;BME280;6774;48.208;10.766;2022-11-20T08:18:06;95106.91;;;7.57;78.20
13407;BME280;6774;48.208;10.766;2022-11-20T08:20:55;95111.25;;;7.50;78.12
13407;BME280;6774;48.208;10.766;2022-11-20T08:23:22;95116.91;;;7.39;78.24
13407;BME280;6774;48.208;10.766;2022-11-20T08:25:50;95110.03;;;7.38;77.37
13407;BME280;6774;48.208;10.766;2022-11-20T08:28:18;95119.19;;;7.42;78.41
13407;BME280;6774;48.208;10.766;2022-11-20T08:30:49;95123.78;;;7.40;78.22
13407;BME280;6774;48.208;10.766;2022-11-20T08:33:18;95125.97;;;7.36;78.06
13407;BME280;6774;48.208;10.766;2022-11-20T08:35:46;95123.97;;;7.38;77.94
13407;BME280;6774;48.208;10.766;2022-11-20T08:38:14;95116.50;;;7.50;77.77
13407;BME280;6774;48.208;10.766;2022-11-20T08:40:41;95115.50;;;7.66;76.60
13407;BME280;6774;48.208;10.766;2022-11-20T08:43:30;95115.81;;;7.86;75.88
13407;BME280;6774;48.208;10.766;2022-11-20T08:45:59;95104.63;;;8.58;73.24
13407;BME280;6774;48.208;10.766;2022-11-20T08:48:26;95108.44;;;8.70;72.51
13407;BME280;6774;48.208;10.766;2022-11-20T08:50:57;95110.50;;;8.74;72.55
13407;BME280;6774;48.208;10.766;2022-11-20T08:53:26;95115.16;;;8.58;73.89
13407;BME280;6774;48.208;10.766;2022-11-20T08:55:53;95103.47;;;8.60;73.30
13407;BME280;6774;48.208;10.766;2022-11-20T08:58:21;95109.25;;;8.70;71.96
13407;BME280;6774;48.208;10.766;2022-11-20T09:00:49;95112.41;;;9.02;72.68
13407;BME280;6774;48.208;10.766;2022-11-20T09:03:18;95103.25;;;9.68;71.35
13407;BME280;6774;48.208;10.766;2022-11-20T09:05:46;95096.09;;;9.90;69.54
13407;BME280;6774;48.208;10.766;2022-11-20T09:08:14;95089.22;;;9.89;70.16
13407;BME280;6774;48.208;10.766;2022-11-20T09:10:42;95101.00;;;10.28;68.38
13407;BME280;6774;48.208;10.766;2022-11-20T09:13:10;95092.34;;;11.08;66.25
13407;BME280;6774;48.208;10.766;2022-11-20T09:15:38;95096.25;;;10.17;68.12
13407;BME280;6774;48.208;10.766;2022-11-20T09:18:05;95093.69;;;9.61;70.09
13407;BME280;6774;48.208;10.766;2022-11-20T09:20:34;95101.13;;;9.08;71.01
13407;BME280;6774;48.208;10.766;2022-11-20T09:23:03;95095.91;;;8.93;72.18
13407;BME280;6774;48.208;10.766;2022-11-20T09:25:31;95108.31;;;8.42;73.69
13407;BME280;6774;48.208;10.766;2022-11-20T09:27:59;95113.53;;;8.12;75.88
13407;BME280;6774;48.208;10.766;2022-11-20T09:30:27;95103.50;;;7.72;76.61
13407;BME280;6774;48.208;10.766;2022-11-20T09:32:55;95100.69;;;8.03;76.10
13407;BME280;6774;48.208;10.766;2022-11-20T09:35:23;95097.69;;;7.91;76.09
13407;BME280;6774;48.208;10.766;2022-11-20T09:37:52;95104.78;;;8.05;74.97
13407;BME280;6774;48.208;10.766;2022-11-20T09:40:22;95102.69;;;8.15;76.02
13407;BME280;6774;48.208;10.766;2022-11-20T09:42:55;95102.94;;;7.91;76.47
13407;BME280;6774;48.208;10.766;2022-11-20T09:45:39;95115.22;;;7.46;76.89
13407;BME280;6774;48.208;10.766;2022-11-20T09:48:24;95107.56;;;7.59;77.86
13407;BME280;6774;48.208;10.766;2022-11-20T09:51:00;95107.78;;;7.35;78.12
13407;BME280;6774;48.208;10.766;2022-11-20T09:53:42;95104.22;;;7.95;76.96
13407;BME280;6774;48.208;10.766;2022-11-20T09:56:14;95097.56;;;7.55;76.95
13407;BME280;6774;48.208;10.766;2022-11-20T09:58:49;95103.16;;;7.37;78.86
13407;BME280;6774;48.208;10.766;2022-11-20T10:01:19;95105.78;;;7.37;77.85
13407;BME280;6774;48.208;10.766;2022-11-20T10:03:54;95120.16;;;7.79;77.01
13407;BME280;6774;48.208;10.766;2022-11-20T10:06:30;95110.88;;;7.53;77.77
13407;BME280;6774;48.208;10.766;2022-11-20T10:09:13;95106.72;;;7.44;77.00
13407;BME280;6774;48.208;10.766;2022-11-20T10:11:50;95096.47;;;7.49;78.01
13407;BME280;6774;48.208;10.766;2022-11-20T10:14:26;95100.81;;;7.04;78.42
13407;BME280;6774;48.208;10.766;2022-11-20T10:17:02;95097.19;;;7.05;78.51
13407;BME280;6774;48.208;10.766;2022-11-20T10:19:43;95106.00;;;7.50;78.54
13407;BME280;6774;48.208;10.766;2022-11-20T10:22:21;95108.69;;;7.42;79.17
13407;BME280;6774;48.208;10.766;2022-11-20T10:25:01;95119.25;;;7.72;77.10
13407;BME280;6774;48.208;10.766;2022-11-20T10:27:56;95101.31;;;7.90;76.02
13407;BME280;6774;48.208;10.766;2022-11-20T10:30:34;95107.13;;;8.00;76.79
13407;BME280;6774;48.208;10.766;2022-11-20T10:33:08;95111.81;;;8.19;75.99
13407;BME280;6774;48.208;10.766;2022-11-20T10:35:44;95120.88;;;8.32;75.92
13407;BME280;6774;48.208;10.766;2022-11-20T10:38:17;95102.50;;;8.02;76.28
13407;BME280;6774;48.208;10.766;2022-11-20T10:40:52;95110.22;;;7.89;74.25
13407;BME280;6774;48.208;10.766;2022-11-20T10:43:41;95105.78;;;7.89;74.11
13407;BME280;6774;48.208;10.766;2022-11-20T10:46:14;95106.03;;;7.80;74.32
13407;BME280;6774;48.208;10.766;2022-11-20T10:48:44;95109.66;;;7.79;74.70
13407;BME280;6774;48.208;10.766;2022-11-20T10:51:21;95111.44;;;7.63;75.18
13407;BME280;6774;48.208;10.766;2022-11-20T10:53:58;95101.94;;;7.77;75.28
13407;BME280;6774;48.208;10.766;2022-11-20T10:56:35;95100.75;;;7.50;75.20
13407;BME280;6774;48.208;10.766;2022-11-20T10:59:25;95092.63;;;7.75;74.69
13407;BME280;6774;48.208;10.766;2022-11-20T11:01:55;95102.19;;;7.67;76.98
13407;BME280;6774;48.208;10.766;2022-11-20T11:04:34;95105.50;;;7.69;75.66
13407;BME280;6774;48.208;10.766;2022-11-20T11:07:09;95088.59;;;7.49;76.39
13407;BME280;6774;48.208;10.766;2022-11-20T11:09:41;95097.84;;;7.45;78.13
13407;BME280;6774;48.208;10.766;2022-11-20T11:12:12;95089.25;;;7.51;76.80
13407;BME280;6774;48.208;10.766;2022-11-20T11:14:45;95096.06;;;7.60;76.68
13407;BME280;6774;48.208;10.766;2022-11-20T11:17:20;95087.03;;;7.78;76.80
13407;BME280;6774;48.208;10.766;2022-11-20T11:20:00;95083.75;;;7.61;77.30
13407;BME280;6774;48.208;10.766;2022-11-20T11:22:30;95085.28;;;7.70;75.53
13407;BME280;6774;48.208;10.766;2022-11-20T11:24:59;95081.41;;;7.81;75.89
13407;BME280;6774;48.208;10.766;2022-11-20T11:27:28;95077.41;;;7.85;75.84
13407;BME280;6774;48.208;10.766;2022-11-20T11:30:12;95073.03;;;8.21;75.00
13407;BME280;6774;48.208;10.766;2022-11-20T11:32:40;95080.09;;;8.21;76.04
13407;BME280;6774;48.208;10.766;2022-11-20T11:35:20;95078.22;;;8.00;75.42
13407;BME280;6774;48.208;10.766;2022-11-20T11:37:48;95081.56;;;7.94;75.57
13407;BME280;6774;48.208;10.766;2022-11-20T11:40:18;95080.84;;;8.00;75.44
13407;BME280;6774;48.208;10.766;2022-11-20T11:42:56;95062.38;;;8.08;75.13
13407;BME280;6774;48.208;10.766;2022-11-20T11:45:25;95070.25;;;8.23;75.60
13407;BME280;6774;48.208;10.766;2022-11-20T11:47:55;95071.31;;;8.28;74.08
13407;BME280;6774;48.208;10.766;2022-11-20T11:50:25;95064.59;;;8.26;75.50
13407;BME280;6774;48.208;10.766;2022-11-20T11:52:58;95070.88;;;8.10;76.00
13407;BME280;6774;48.208;10.766;2022-11-20T11:55:32;95069.97;;;8.03;75.97
13407;BME280;6774;48.208;10.766;2022-11-20T11:58:16;95063.25;;;8.15;75.00
13407;BME280;6774;48.208;10.766;2022-11-20T12:00:53;95063.91;;;8.03;76.36
13407;BME280;6774;48.208;10.766;2022-11-20T12:03:27;95059.53;;;8.24;76.05
13407;BME280;6774;48.208;10.766;2022-11-20T12:05:57;95062.22;;;8.31;75.15
13407;BME280;6774;48.208;10.766;2022-11-20T12:08:31;95055.75;;;7.97;76.43
13407;BME280;6774;48.208;10.766;2022-11-20T12:11:04;95058.38;;;7.97;76.44
13407;BME280;6774;48.208;10.766;2022-11-20T12:13:45;95063.81;;;7.66;77.69
13407;BME280;6774;48.208;10.766;2022-11-20T12:16:19;95049.19;;;7.20;78.89
13407;BME280;6774;48.208;10.766;2022-11-20T12:18:49;95046.25;;;7.52;80.34
13407;BME280;6774;48.208;10.766;2022-11-20T12:21:20;95056.13;;;7.50;79.40
13407;BME280;6774;48.208;10.766;2022-11-20T12:23:59;95050.75;;;7.58;79.56
13407;BME280;6774;48.208;10.766;2022-11-20T12:26:42;95053.31;;;7.66;81.11
13407;BME280;6774;48.208;10.766;2022-11-20T12:29:22;95059.75;;;7.64;79.60
13407;BME280;6774;48.208;10.766;2022-11-20T12:32:22;95041.06;;;7.59;80.48
13407;BME280;6774;48.208;10.766;2022-11-20T12:35:00;95050.94;;;7.42;80.64
13407;BME280;6774;48.208;10.766;2022-11-20T12:37:44;95054.91;;;7.38;80.35
13407;BME280;6774;48.208;10.766;2022-11-20T12:40:27;95047.31;;;7.43;81.48
13407;BME280;6774;48.208;10.766;2022-11-20T12:43:03;95049.13;;;7.57;81.62
13407;BME280;6774;48.208;10.766;2022-11-20T12:46:04;95054.19;;;7.44;81.96
13407;BME280;6774;48.208;10.766;2022-11-20T12:48:48;95056.97;;;7.28;82.92
13407;BME280;6774;48.208;10.766;2022-11-20T12:51:44;95050.03;;;7.50;82.34
13407;BME280;6774;48.208;10.766;2022-11-20T12:54:31;95047.09;;;7.15;82.29
13407;BME280;6774;48.208;10.766;2022-11-20T12:57:09;95046.72;;;7.18;82.73
13407;BME280;6774;48.208;10.766;2022-11-20T12:59:52;95046.41;;;7.36;83.03
13407;BME280;6774;48.208;10.766;2022-11-20T13:02:33;95042.66;;;7.30;81.88
13407;BME280;6774;48.208;10.766;2022-11-20T13:05:18;95040.03;;;7.16;81.26
13407;BME280;6774;48.208;10.766;2022-11-20T13:07:48;95046.41;;;7.36;83.14
13407;BME280;6774;48.208;10.766;2022-11-20T13:10:23;95028.88;;;7.51;81.28
13407;BME280;6774;48.208;10.766;2022-11-20T13:12:57;95026.22;;;7.66;80.99
13407;BME280;6774;48.208;10.766;2022-11-20T13:15:35;95032.03;;;7.91;80.78
13407;BME280;6774;48.208;10.766;2022-11-20T13:18:09;95031.22;;;7.76;81.16
13407;BME280;6774;48.208;10.766;2022-11-20T13:20:42;95026.50;;;7.86;80.81
13407;BME280;6774;48.208;10.766;2022-11-20T13:23:10;95023.44;;;7.82;80.30
13407;BME280;6774;48.208;10.766;2022-11-20T13:25:39;95018.50;;;7.94;79.96
13407;BME280;6774;48.208;10.766;2022-11-20T13:28:28;95020.41;;;7.85;80.97
13407;BME280;6774;48.208;10.766;2022-11-20T13:30:57;95017.53;;;7.65;81.97
13407;BME280;6774;48.208;10.766;2022-11-20T13:33:30;95017.59;;;8.16;80.02